Abu Musa, Iran

3:41 PM IRDT on July 26, 2014 (GMT +0430)
Abumusa (OIBA) Elev 23 ft | 25.88 °N, 55.03 °E | Change Station

Current weather conditions updated 11 minutes ago

Haze
Haze
97 °F
Feels Like 131 °F
N
7
Wind Variable Wind from NNE

Today is forecast to be Warmer than yesterday.

Today
High -- | Low -- °F
--% Chance of Precip.
Yesterday
High -- | Low -- °F
Precip. -- in
6:13 AM 7:40 PM
Waning Crescent, 0% visible
Pressure 29.44 in
Visibility 3.1 miles
Clouds Clear
Heat Index 131 °F
Dew Point 86 °F
Humidity 71%
Rainfall 0.00 in
Snow Depth Not available.
UV 8 out of 12
Pollen Not available.
Air Quality Not available.
Flu Activity Not available.
METAR OIBA 261100Z 03006KT 5000 HZ SKC 36/30 Q0997

More Conditions Fewer Conditions

Pressure 29.44 in
Visibility 3.1 miles
Clouds Clear
Heat Index 131 °F
Dew Point 86 °F
Humidity 71%
Rainfall 0.00 in
Snow Depth Not available.
UV 8 out of 12
Pollen Not available.
Air Quality Not available.
Flu Activity Not available.
METAR OIBA 261100Z 03006KT 5000 HZ SKC 36/30 Q0997

More Conditions Fewer Conditions

10-Day Weather Forecast

Almanac

Astronomy

Jul. 26, 2014 Rise Set
Actual Time 6:13 AM IRDT 7:40 PM IRDT
Civil Twilight 5:48 AM IRDT 8:05 PM IRDT
Nautical Twilight 5:18 AM IRDT 8:35 PM IRDT
Astronomical Twilight 4:47 AM IRDT 9:06 PM IRDT
Moon 5:39 AM IRDT 7:07 PM IRDT
Length of Visible Light 14h 16m
Length of Day
13h 26m
Tomorrow will be 1m 1s shorter.
Waning Crescent, 0% of the Moon is Illuminated
Today
Waning Crescent
Jul 26
New
Aug 3
First Quarter
Aug 10
Full
Aug 17
Last Quarter

Yesterday's Extremes

Country Highs Country Lows

Community

WunderPhotos

Upload Photos

1,737,529 photos uploaded!

Nearby

Snow Depth

Not available.

Earthquake Activity

City Distance Mag. Time & Date
No recent earthquake activity has been reported nearby.
Minimum magnitude displayed is 2.5.

Coastal Water Temperatures

Place Temperature
No Stations Reporting

Nearby Weather Stations

There are no personal weather stations in this area.